Time;durP1;ratioP1;P1;durP2;ratioP2;P2;SDS_P1;SDS_P2;PMS_P1;PMS_P2;Temp;Humidity;BMP_temperature;BMP_pressure;BME280_temperature;BME280_humidity;BME280_pressure;Samples;Min_cycle;Max_cycle;Signal;HPM_P1;HPM_P2
2023/05/26 00:01:14;;;;;;;27.30;6.25;;;12.00;99.90;;;;;;5094237;28;20023;-91
2023/05/26 00:03:44;;;;;;;30.90;6.30;;;12.00;99.90;;;;;;5103468;28;20034;-90
2023/05/26 00:06:11;;;;;;;29.02;6.13;;;12.00;99.90;;;;;;5113824;28;20429;-91
2023/05/26 00:08:38;;;;;;;37.65;6.18;;;11.90;99.90;;;;;;5114109;28;20032;-91
2023/05/26 00:11:03;;;;;;;41.50;6.50;;;11.90;99.90;;;;;;5113716;28;20050;-91
2023/05/26 00:13:29;;;;;;;28.05;5.93;;;11.90;99.90;;;;;;5115247;28;20055;-92
2023/05/26 00:15:54;;;;;;;29.92;6.18;;;11.80;99.90;;;;;;5131910;28;20065;-92
2023/05/26 00:18:20;;;;;;;29.60;5.63;;;11.80;99.90;;;;;;5124586;28;20031;-93
2023/05/26 00:20:45;;;;;;;36.45;6.75;;;11.80;99.90;;;;;;5114863;28;20126;-92
2023/05/26 00:23:11;;;;;;;35.63;6.40;;;11.70;99.90;;;;;;5114377;28;20504;-91
2023/05/26 00:25:37;;;;;;;38.75;6.38;;;11.70;99.90;;;;;;5113468;28;20467;-91
2023/05/26 00:28:02;;;;;;;34.15;6.65;;;11.70;99.90;;;;;;5114050;28;20019;-91
2023/05/26 00:30:28;;;;;;;25.02;5.78;;;11.60;99.90;;;;;;5114304;28;20027;-92
2023/05/26 00:32:54;;;;;;;33.30;5.82;;;11.60;99.90;;;;;;5113292;28;20034;-91
2023/05/26 00:35:19;;;;;;;17.30;5.65;;;11.60;99.90;;;;;;5113992;28;20023;-92
2023/05/26 00:37:45;;;;;;;20.67;5.28;;;11.60;99.90;;;;;;5113752;28;20123;-92
2023/05/26 00:40:12;;;;;;;27.95;5.55;;;11.50;99.90;;;;;;5106154;28;20024;-90
2023/05/26 00:42:37;;;;;;;25.52;5.28;;;11.50;99.90;;;;;;5096877;28;20052;-91
2023/05/26 00:45:03;;;;;;;31.45;5.90;;;11.40;99.90;;;;;;5097846;28;20063;-90
2023/05/26 00:47:29;;;;;;;33.60;6.35;;;11.40;99.90;;;;;;5097132;28;20032;-91
2023/05/26 00:49:54;;;;;;;32.05;5.28;;;11.30;99.90;;;;;;5097710;28;20031;-92
2023/05/26 00:52:21;;;;;;;33.15;7.95;;;11.30;99.90;;;;;;5097730;28;20081;-92
2023/05/26 00:54:47;;;;;;;31.25;7.20;;;11.20;99.90;;;;;;5096641;28;20551;-91
2023/05/26 00:57:13;;;;;;;25.98;5.80;;;11.20;99.90;;;;;;5097515;28;20539;-93
2023/05/26 00:59:39;;;;;;;24.83;5.35;;;11.20;99.90;;;;;;5099194;28;20036;-92
2023/05/26 01:02:05;;;;;;;31.85;6.75;;;11.20;99.90;;;;;;5112767;28;20020;-91
2023/05/26 01:04:31;;;;;;;49.10;6.05;;;11.20;99.90;;;;;;5097580;28;20020;-91
2023/05/26 01:06:56;;;;;;;37.58;6.50;;;11.10;99.90;;;;;;5097406;28;20059;-91
2023/05/26 01:09:23;;;;;;;23.85;5.93;;;11.10;99.90;;;;;;5096453;28;20028;-91
2023/05/26 01:12:03;;;;;;;31.55;6.85;;;11.10;99.90;;;;;;5115255;28;20031;-92
2023/05/26 01:14:52;;;;;;;33.72;6.10;;;11.00;99.90;;;;;;5096751;28;20570;-90
2023/05/26 01:17:32;;;;;;;27.20;6.38;;;11.00;99.90;;;;;;5096995;28;20419;-91
2023/05/26 01:20:22;;;;;;;35.28;6.32;;;11.00;99.90;;;;;;5097204;28;20032;-91
2023/05/26 01:22:50;;;;;;;23.60;5.28;;;10.90;99.90;;;;;;5096449;28;20110;-90
2023/05/26 01:25:15;;;;;;;30.42;6.55;;;10.80;99.90;;;;;;5097300;28;20043;-92
2023/05/26 01:27:46;;;;;;;29.67;6.53;;;10.80;99.90;;;;;;5096949;28;20039;-92
2023/05/26 01:30:13;;;;;;;34.22;6.03;;;10.90;99.90;;;;;;5096763;28;20031;-91
2023/05/26 01:32:46;;;;;;;28.50;5.45;;;11.00;99.90;;;;;;5096915;28;20050;-91
2023/05/26 01:35:12;;;;;;;29.75;6.75;;;11.00;99.90;;;;;;5096933;28;20023;-91
2023/05/26 01:37:37;;;;;;;42.03;6.70;;;11.00;99.90;;;;;;5095883;28;20031;-90
2023/05/26 01:40:03;;;;;;;30.13;6.00;;;11.00;99.90;;;;;;5096941;28;20020;-91
2023/05/26 01:42:36;;;;;;;33.47;6.95;;;11.00;99.90;;;;;;5095643;28;20020;-91
2023/05/26 01:45:15;;;;;;;33.60;5.43;;;11.10;99.90;;;;;;5096931;28;20079;-91
2023/05/26 01:47:42;;;;;;;31.77;6.70;;;11.20;99.90;;;;;;5096149;28;20020;-91
2023/05/26 01:50:11;;;;;;;29.83;5.95;;;11.20;99.90;;;;;;5096204;28;20020;-92
2023/05/26 01:52:40;;;;;;;29.48;5.18;;;11.20;99.90;;;;;;5095986;28;20380;-92
2023/05/26 01:55:13;;;;;;;29.00;5.55;;;11.20;99.90;;;;;;5096422;28;20051;-91
2023/05/26 01:57:41;;;;;;;31.52;5.43;;;11.10;99.90;;;;;;5095854;28;20076;-91
2023/05/26 02:00:09;;;;;;;31.85;6.55;;;11.10;99.90;;;;;;5108954;28;20395;-91
2023/05/26 02:02:35;;;;;;;32.45;6.68;;;11.00;99.90;;;;;;5116402;28;20087;-91
2023/05/26 02:05:00;;;;;;;23.20;5.07;;;10.90;99.90;;;;;;5131002;28;20024;-91
2023/05/26 02:07:26;;;;;;;29.27;5.75;;;10.90;99.90;;;;;;5123949;28;20031;-92
2023/05/26 02:09:51;;;;;;;26.83;5.72;;;10.80;99.90;;;;;;5116429;28;20023;-92
2023/05/26 02:12:17;;;;;;;23.48;5.70;;;10.70;99.90;;;;;;5116224;28;20023;-92
2023/05/26 02:14:42;;;;;;;23.27;5.35;;;10.70;99.90;;;;;;5116038;28;20482;-90
2023/05/26 02:17:10;;;;;;;27.80;5.93;;;10.60;99.90;;;;;;5116192;28;20046;-92
2023/05/26 02:19:36;;;;;;;27.98;5.25;;;10.50;99.90;;;;;;5115861;28;20103;-92
2023/05/26 02:22:02;;;;;;;29.10;6.13;;;10.60;99.90;;;;;;5116514;28;20052;-90
2023/05/26 02:24:27;;;;;;;32.45;5.32;;;10.50;99.90;;;;;;5117018;28;20071;-91
2023/05/26 02:26:53;;;;;;;32.40;6.25;;;10.40;99.90;;;;;;5118530;28;20019;-91
2023/05/26 02:29:18;;;;;;;21.52;4.93;;;10.50;99.90;;;;;;5117726;28;20027;-91
2023/05/26 02:31:44;;;;;;;34.20;6.38;;;10.40;99.90;;;;;;5115874;28;20023;-90
2023/05/26 02:34:10;;;;;;;20.70;5.20;;;10.40;99.90;;;;;;5118920;28;20032;-89
2023/05/26 02:36:36;;;;;;;28.70;5.50;;;10.40;99.90;;;;;;5119240;28;20387;-91
2023/05/26 02:39:02;;;;;;;26.25;5.03;;;10.40;99.90;;;;;;5115692;28;20036;-89
2023/05/26 02:41:27;;;;;;;24.92;5.05;;;10.40;99.90;;;;;;5115305;28;20020;-92
2023/05/26 02:43:53;;;;;;;31.52;6.13;;;10.40;99.90;;;;;;5115965;28;20027;-92
2023/05/26 02:46:19;;;;;;;31.10;5.05;;;10.40;99.90;;;;;;5115481;28;20094;-91
2023/05/26 02:48:44;;;;;;;34.72;6.40;;;10.30;99.90;;;;;;5115233;28;20383;-91
2023/05/26 02:51:10;;;;;;;36.05;6.03;;;10.30;99.90;;;;;;5116063;28;20030;-92
2023/05/26 02:53:35;;;;;;;34.10;5.95;;;10.40;99.90;;;;;;5114539;28;20102;-92
2023/05/26 02:56:01;;;;;;;29.52;5.80;;;10.40;99.90;;;;;;5133952;28;20093;-91
2023/05/26 02:58:27;;;;;;;30.90;6.32;;;10.40;99.90;;;;;;5121281;27;20030;-92
2023/05/26 03:00:53;;;;;;;35.20;5.18;;;10.40;99.90;;;;;;5109644;28;20020;-92
2023/05/26 03:03:18;;;;;;;26.40;7.03;;;10.40;99.90;;;;;;5096120;28;20063;-90
2023/05/26 03:05:45;;;;;;;34.17;5.45;;;10.30;99.90;;;;;;5094749;28;20468;-91
2023/05/26 03:08:10;;;;;;;36.15;5.68;;;10.30;99.90;;;;;;5094766;28;20024;-91
2023/05/26 03:10:36;;;;;;;32.60;6.28;;;10.20;99.90;;;;;;5094829;28;20074;-92
2023/05/26 03:13:02;;;;;;;40.55;6.93;;;10.20;99.90;;;;;;5094541;28;20024;-92
2023/05/26 03:15:36;;;;;;;42.72;6.90;;;10.20;99.90;;;;;;5094593;28;20067;-92
2023/05/26 03:18:02;;;;;;;25.95;5.38;;;10.10;99.90;;;;;;5094715;28;20047;-92
2023/05/26 03:20:29;;;;;;;27.55;5.35;;;10.10;99.90;;;;;;5094899;28;20074;-90
2023/05/26 03:22:54;;;;;;;28.80;5.35;;;10.10;99.90;;;;;;5093957;28;20024;-90
2023/05/26 03:25:20;;;;;;;26.60;5.78;;;10.00;99.90;;;;;;5094852;28;20089;-92
2023/05/26 03:27:46;;;;;;;26.90;5.88;;;10.00;99.90;;;;;;5094126;28;20032;-91
2023/05/26 03:30:12;;;;;;;28.10;5.15;;;9.90;99.90;;;;;;5094303;28;20016;-90
2023/05/26 03:32:37;;;;;;;35.92;6.53;;;9.90;99.90;;;;;;5094115;28;20058;-90
2023/05/26 03:35:04;;;;;;;32.15;5.53;;;9.90;99.90;;;;;;5094176;28;20353;-91
2023/05/26 03:37:29;;;;;;;24.95;5.47;;;9.90;99.90;;;;;;5094555;28;20040;-91
2023/05/26 03:39:55;;;;;;;30.17;5.80;;;9.90;99.90;;;;;;5094248;28;20020;-91
2023/05/26 03:42:20;;;;;;;30.23;5.22;;;10.00;99.90;;;;;;5093820;28;20024;-90
2023/05/26 03:44:46;;;;;;;33.60;5.40;;;9.90;99.90;;;;;;5094508;28;20023;-91
2023/05/26 03:47:11;;;;;;;29.10;5.97;;;9.90;99.90;;;;;;5094135;28;20177;-92
2023/05/26 03:49:37;;;;;;;38.35;5.68;;;9.90;99.90;;;;;;5093990;28;20020;-91
2023/05/26 03:52:03;;;;;;;29.10;5.68;;;9.90;99.90;;;;;;5098999;28;20050;-91
2023/05/26 03:54:28;;;;;;;27.90;4.93;;;9.90;99.90;;;;;;5114741;28;20055;-91
2023/05/26 03:56:55;;;;;;;23.92;5.72;;;9.90;99.90;;;;;;5095210;28;20016;-90
2023/05/26 03:59:20;;;;;;;28.00;4.82;;;9.90;99.90;;;;;;5093960;28;20040;-91
2023/05/26 04:01:46;;;;;;;26.23;6.30;;;9.90;99.90;;;;;;5093798;28;20062;-90
2023/05/26 04:04:12;;;;;;;25.85;5.15;;;9.90;99.90;;;;;;5093415;28;20052;-89
2023/05/26 04:06:38;;;;;;;46.70;6.22;;;9.90;99.90;;;;;;5093917;28;20095;-90
2023/05/26 04:09:04;;;;;;;30.55;5.63;;;9.90;99.90;;;;;;5094151;28;20053;-91
2023/05/26 04:11:30;;;;;;;27.98;6.43;;;9.80;99.90;;;;;;5093248;28;20024;-90
2023/05/26 04:13:56;;;;;;;28.58;4.78;;;9.80;99.90;;;;;;5093688;28;20023;-91
2023/05/26 04:16:22;;;;;;;39.75;7.25;;;9.80;99.90;;;;;;5093420;28;20107;-90
2023/05/26 04:18:47;;;;;;;32.65;6.38;;;9.80;99.90;;;;;;5093155;28;20028;-91
2023/05/26 04:21:13;;;;;;;29.95;5.65;;;9.80;99.90;;;;;;5094425;28;20028;-92
2023/05/26 04:23:38;;;;;;;33.90;6.95;;;9.80;99.90;;;;;;5094190;28;20491;-91
2023/05/26 04:26:05;;;;;;;27.60;5.57;;;9.80;99.90;;;;;;5093468;28;20024;-91
2023/05/26 04:28:30;;;;;;;27.10;5.13;;;9.90;99.90;;;;;;5093827;28;20024;-91
2023/05/26 04:30:56;;;;;;;34.47;5.53;;;9.90;99.90;;;;;;5093817;28;20020;-92
2023/05/26 04:33:22;;;;;;;22.63;5.28;;;9.90;99.90;;;;;;5093901;28;20098;-90
2023/05/26 04:35:48;;;;;;;23.40;6.32;;;10.00;99.90;;;;;;5093869;28;20020;-91
2023/05/26 04:38:15;;;;;;;30.13;6.20;;;10.00;99.90;;;;;;5099432;28;20090;-91
2023/05/26 04:40:41;;;;;;;33.08;6.35;;;10.00;99.90;;;;;;5092931;28;20031;-92
2023/05/26 04:43:06;;;;;;;36.13;6.65;;;10.10;99.90;;;;;;5093589;28;20043;-89
2023/05/26 04:45:37;;;;;;;35.70;5.65;;;10.10;99.90;;;;;;5093242;28;20016;-91
2023/05/26 04:48:05;;;;;;;;;;;10.30;99.90;;;;;;5109475;28;20082;-92
2023/05/26 04:50:32;;;;;;;26.98;5.45;;;10.30;99.90;;;;;;5108834;28;19912;-91
2023/05/26 04:52:58;;;;;;;24.95;5.20;;;10.40;99.90;;;;;;5095332;28;20039;-92
2023/05/26 04:55:25;;;;;;;30.52;6.43;;;10.50;99.90;;;;;;5092161;28;20071;-91
2023/05/26 04:57:50;;;;;;;30.90;6.43;;;10.60;99.90;;;;;;5095071;28;20039;-91
2023/05/26 05:00:16;;;;;;;26.65;5.50;;;10.70;99.90;;;;;;5097946;28;20035;-92
2023/05/26 05:02:42;;;;;;;27.40;6.07;;;10.70;99.90;;;;;;5099355;28;20096;-91
2023/05/26 05:05:08;;;;;;;28.48;6.38;;;10.70;99.90;;;;;;5096285;28;20028;-92
2023/05/26 05:07:34;;;;;;;25.75;5.43;;;10.70;99.90;;;;;;5097840;28;20039;-92
2023/05/26 05:09:59;;;;;;;36.17;7.10;;;10.60;99.90;;;;;;5093507;28;20024;-93
2023/05/26 05:12:26;;;;;;;33.22;6.80;;;10.60;99.90;;;;;;5093479;28;20047;-93
2023/05/26 05:14:51;;;;;;;44.13;5.90;;;10.50;99.90;;;;;;5092547;28;20540;-93
2023/05/26 05:17:17;;;;;;;36.15;7.85;;;10.60;99.90;;;;;;5092927;28;20020;-93
2023/05/26 05:19:43;;;;;;;36.95;7.03;;;10.60;99.90;;;;;;5093058;28;20024;-93
2023/05/26 05:22:08;;;;;;;41.90;6.68;;;10.50;99.90;;;;;;5092396;28;20031;-91
2023/05/26 05:24:34;;;;;;;28.83;5.72;;;10.60;99.90;;;;;;5092789;28;20069;-93
2023/05/26 05:27:01;;;;;;;31.35;5.80;;;10.60;99.90;;;;;;5093858;28;20024;-92
2023/05/26 05:29:27;;;;;;;30.90;6.82;;;10.70;99.90;;;;;;5096779;28;20020;-92
2023/05/26 05:31:52;;;;;;;23.48;5.18;;;10.80;99.90;;;;;;5097039;28;20387;-91
2023/05/26 05:34:18;;;;;;;32.90;6.22;;;10.90;99.90;;;;;;5096738;28;20028;-92
2023/05/26 05:36:43;;;;;;;31.45;6.85;;;10.90;99.90;;;;;;5095934;28;20035;-92
2023/05/26 05:39:09;;;;;;;34.53;6.47;;;10.90;99.90;;;;;;5097389;28;20032;-92
2023/05/26 05:41:35;;;;;;;40.47;7.63;;;10.90;99.90;;;;;;5111253;28;20087;-91
2023/05/26 05:44:00;;;;;;;38.85;6.68;;;11.00;99.90;;;;;;5108486;28;20047;-93
2023/05/26 05:46:27;;;;;;;33.00;6.47;;;11.00;99.90;;;;;;5100623;28;20111;-91
2023/05/26 05:48:52;;;;;;;37.63;6.15;;;11.00;99.90;;;;;;5095870;28;20070;-92
2023/05/26 05:51:18;;;;;;;43.80;6.30;;;11.10;99.90;;;;;;5096485;28;20476;-92
2023/05/26 05:53:44;;;;;;;26.85;6.20;;;11.00;99.90;;;;;;5097068;28;20395;-90
2023/05/26 05:56:10;;;;;;;28.67;6.25;;;11.00;99.90;;;;;;5096521;28;20044;-91
2023/05/26 05:58:36;;;;;;;35.65;6.15;;;11.10;99.90;;;;;;5095985;28;20077;-92
2023/05/26 06:01:01;;;;;;;35.50;6.88;;;11.20;99.90;;;;;;5097156;28;20391;-92
2023/05/26 06:03:27;;;;;;;23.70;4.85;;;11.30;99.90;;;;;;5099165;28;20027;-91
2023/05/26 06:05:52;;;;;;;31.15;5.97;;;11.30;99.90;;;;;;5099386;28;20028;-91
2023/05/26 06:08:18;;;;;;;25.55;6.07;;;11.30;99.90;;;;;;5097289;28;20024;-92
2023/05/26 06:10:44;;;;;;;36.63;6.68;;;11.30;99.90;;;;;;5097647;28;20046;-91
2023/05/26 06:13:09;;;;;;;32.28;6.03;;;11.30;99.90;;;;;;5100534;28;20028;-91
2023/05/26 06:15:35;;;;;;;36.35;5.78;;;11.30;99.90;;;;;;5096845;28;20051;-91
2023/05/26 06:18:00;;;;;;;25.35;6.25;;;11.40;99.90;;;;;;5095537;28;20522;-91
2023/05/26 06:20:26;;;;;;;37.75;7.25;;;11.40;99.90;;;;;;5096363;28;20489;-90
2023/05/26 06:22:51;;;;;;;41.55;8.10;;;11.40;99.90;;;;;;5095921;28;20395;-90
2023/05/26 06:25:17;;;;;;;22.17;5.78;;;11.40;99.90;;;;;;5095768;28;20020;-91
2023/05/26 06:27:42;;;;;;;36.40;7.55;;;11.70;99.90;;;;;;5095879;28;20016;-90
2023/05/26 06:30:08;;;;;;;37.30;5.68;;;11.50;99.90;;;;;;5095577;28;20093;-89
2023/05/26 06:32:34;;;;;;;29.65;6.63;;;11.40;99.90;;;;;;5094847;28;20024;-91
2023/05/26 06:35:00;;;;;;;34.13;6.35;;;11.50;99.90;;;;;;5102295;28;20024;-91
2023/05/26 06:37:25;;;;;;;35.63;6.25;;;11.50;99.90;;;;;;5104375;28;20111;-90
2023/05/26 06:39:51;;;;;;;34.67;5.82;;;11.60;99.90;;;;;;5096260;28;20028;-91
2023/05/26 06:42:16;;;;;;;30.83;5.57;;;11.60;99.90;;;;;;5095817;28;20046;-92
2023/05/26 06:44:42;;;;;;;33.05;6.05;;;12.10;99.90;;;;;;5101875;28;20028;-91
2023/05/26 06:47:08;;;;;;;23.25;6.07;;;11.60;99.90;;;;;;5099487;28;20468;-91
2023/05/26 06:49:33;;;;;;;35.30;6.45;;;11.70;99.90;;;;;;5095443;28;20074;-91
2023/05/26 06:52:00;;;;;;;25.13;5.40;;;11.70;99.90;;;;;;5093997;28;20052;-90
2023/05/26 06:54:26;;;;;;;33.65;5.43;;;11.80;99.90;;;;;;5093389;28;20052;-89
2023/05/26 06:56:51;;;;;;;33.05;6.75;;;11.90;99.90;;;;;;5094520;28;20020;-89
2023/05/26 06:59:17;;;;;;;25.50;6.35;;;11.90;99.90;;;;;;5093146;28;20357;-89
2023/05/26 07:01:42;;;;;;;33.20;5.82;;;11.90;99.90;;;;;;5093440;28;20020;-90
2023/05/26 07:04:08;;;;;;;37.50;6.07;;;11.90;99.90;;;;;;5093590;28;20046;-89
2023/05/26 07:06:33;;;;;;;32.00;6.93;;;11.90;99.90;;;;;;5093855;28;20540;-90
2023/05/26 07:08:59;;;;;;;36.00;7.30;;;11.80;99.90;;;;;;5094354;28;20027;-90
2023/05/26 07:11:25;;;;;;;31.48;7.50;;;11.90;99.90;;;;;;5094369;28;20020;-88
2023/05/26 07:13:54;;;;;;;25.75;6.15;;;11.90;99.90;;;;;;5093877;28;20031;-88
2023/05/26 07:16:20;;;;;;;29.38;5.88;;;11.90;99.90;;;;;;5093802;28;20479;-90
2023/05/26 07:18:46;;;;;;;27.33;5.22;;;12.00;99.90;;;;;;5093952;28;20114;-87
2023/05/26 07:21:11;;;;;;;29.35;5.00;;;12.20;99.90;;;;;;5092653;28;20024;-88
2023/05/26 07:23:37;;;;;;;21.88;5.53;;;12.10;99.90;;;;;;5093052;28;20066;-88
2023/05/26 07:26:02;;;;;;;30.88;6.30;;;12.20;99.90;;;;;;5091930;28;20127;-87
2023/05/26 07:28:28;;;;;;;19.67;5.45;;;12.30;99.90;;;;;;5094317;28;20074;-86
2023/05/26 07:30:53;;;;;;;27.38;7.05;;;12.30;99.90;;;;;;5104889;28;20107;-88
2023/05/26 07:33:19;;;;;;;29.30;6.55;;;12.30;99.90;;;;;;5094813;28;20035;-88
2023/05/26 07:35:45;;;;;;;30.23;6.45;;;12.40;99.90;;;;;;5093667;28;20061;-87
2023/05/26 07:38:10;;;;;;;33.22;6.28;;;12.40;99.90;;;;;;5093399;28;20036;-88
2023/05/26 07:40:36;;;;;;;28.98;6.18;;;12.40;99.90;;;;;;5093173;28;20056;-85
2023/05/26 07:43:02;;;;;;;23.52;5.40;;;12.50;99.90;;;;;;5092404;28;20028;-86
2023/05/26 07:45:28;;;;;;;27.52;5.53;;;12.50;99.90;;;;;;5091911;28;20242;-91
2023/05/26 07:47:54;;;;;;;28.98;5.95;;;13.30;99.90;;;;;;5092058;28;20024;-87
2023/05/26 07:50:20;;;;;;;27.40;6.28;;;12.70;99.90;;;;;;5091022;28;20059;-87
2023/05/26 07:52:45;;;;;;;36.05;6.30;;;12.60;99.90;;;;;;5090932;28;20102;-87
2023/05/26 07:55:11;;;;;;;28.10;6.03;;;12.70;99.90;;;;;;5091429;28;20048;-87
2023/05/26 07:57:37;;;;;;;21.73;5.47;;;12.60;99.90;;;;;;5090437;28;20035;-88
2023/05/26 08:00:03;;;;;;;19.75;5.22;;;12.70;99.90;;;;;;5092648;28;20020;-87
2023/05/26 08:02:29;;;;;;;22.30;5.22;;;12.70;99.90;;;;;;5092733;28;20055;-89
2023/05/26 08:04:55;;;;;;;27.42;5.93;;;12.70;99.90;;;;;;5093678;28;20084;-90
2023/05/26 08:07:21;;;;;;;19.10;6.05;;;12.80;99.90;;;;;;5093928;28;20020;-85
2023/05/26 08:09:46;;;;;;;28.20;6.30;;;12.70;99.90;;;;;;5091119;28;20539;-86
2023/05/26 08:12:12;;;;;;;21.75;5.13;;;12.80;99.90;;;;;;5097990;28;20051;-86
2023/05/26 08:14:38;;;;;;;26.20;5.18;;;12.80;99.90;;;;;;5092372;28;20518;-84
2023/05/26 08:17:03;;;;;;;21.38;5.63;;;12.80;99.90;;;;;;5091712;28;20503;-82
2023/05/26 08:19:29;;;;;;;26.25;5.50;;;12.80;99.90;;;;;;5092088;28;20502;-84
2023/05/26 08:21:55;;;;;;;27.60;5.88;;;12.80;99.90;;;;;;5094796;28;20089;-88
2023/05/26 08:24:22;;;;;;;33.20;5.97;;;12.80;99.90;;;;;;5097154;28;20137;-87
2023/05/26 08:26:48;;;;;;;17.85;5.05;;;12.80;99.90;;;;;;5092721;28;20077;-88
2023/05/26 08:29:14;;;;;;;15.75;5.25;;;12.90;99.90;;;;;;5092662;28;20088;-86
2023/05/26 08:31:40;;;;;;;28.55;5.90;;;12.90;99.90;;;;;;5091704;28;20020;-86
2023/05/26 08:34:06;;;;;;;22.08;5.30;;;13.00;99.90;;;;;;5095978;28;20032;-87
2023/05/26 08:36:31;;;;;;;30.95;5.13;;;13.00;99.90;;;;;;5091055;28;20610;-87
2023/05/26 08:38:57;;;;;;;22.95;5.30;;;12.90;99.90;;;;;;5091547;28;20135;-87
2023/05/26 08:41:25;;;;;;;26.83;5.20;;;13.90;99.90;;;;;;5092188;28;20107;-85
2023/05/26 08:43:55;;;;;;;22.02;6.10;;;13.10;99.90;;;;;;5091367;28;20024;-88
2023/05/26 08:46:22;;;;;;;34.63;7.53;;;13.40;99.90;;;;;;5091535;28;20027;-88
2023/05/26 08:48:48;;;;;;;24.27;5.88;;;13.20;99.90;;;;;;5091620;28;20032;-88
2023/05/26 08:51:14;;;;;;;24.98;5.28;;;13.30;99.90;;;;;;5092271;28;20475;-86
2023/05/26 08:53:40;;;;;;;20.10;6.45;;;13.30;99.90;;;;;;5091317;28;20162;-88
2023/05/26 08:56:07;;;;;;;26.17;4.78;;;13.40;99.90;;;;;;5091554;28;20135;-86
2023/05/26 08:58:34;;;;;;;24.60;5.88;;;13.40;99.90;;;;;;5090523;28;20032;-86
2023/05/26 09:01:01;;;;;;;28.27;5.72;;;13.40;99.90;;;;;;5089909;28;20020;-85
2023/05/26 09:03:27;;;;;;;17.60;5.20;;;13.40;99.90;;;;;;5091549;28;20074;-88
2023/05/26 09:05:52;;;;;;;29.33;6.03;;;13.50;99.90;;;;;;5088016;28;20031;-87
2023/05/26 09:08:18;;;;;;;24.02;5.43;;;13.50;99.90;;;;;;5093299;28;20063;-88
2023/05/26 09:10:43;;;;;;;25.02;5.07;;;13.60;99.90;;;;;;5092602;28;20067;-86
2023/05/26 09:13:13;;;;;;;20.17;6.07;;;13.60;99.90;;;;;;5092630;28;20043;-86
2023/05/26 09:15:39;;;;;;;23.20;6.38;;;13.60;99.90;;;;;;5103605;28;20024;-86
2023/05/26 09:18:10;;;;;;;21.08;5.10;;;13.70;99.90;;;;;;5100352;28;20040;-86
2023/05/26 09:20:39;;;;;;;;;;;13.70;99.90;;;;;;5095579;28;20028;-86
2023/05/26 09:23:05;;;;;;;13.52;5.30;;;13.80;99.90;;;;;;5096108;28;19904;-87
2023/05/26 09:25:40;;;;;;;34.42;5.90;;;13.80;99.90;;;;;;5095682;28;20107;-86
2023/05/26 09:28:09;;;;;;;19.98;5.05;;;13.90;99.90;;;;;;5095427;28;20032;-88
2023/05/26 09:30:36;;;;;;;18.20;4.57;;;14.20;99.90;;;;;;5095408;28;20024;-88
2023/05/26 09:33:07;;;;;;;22.50;4.80;;;13.90;99.90;;;;;;5095700;28;20476;-87
2023/05/26 09:35:37;;;;;;;15.02;4.90;;;13.90;99.90;;;;;;5095151;28;20078;-87
2023/05/26 09:38:05;;;;;;;21.50;5.22;;;14.00;99.90;;;;;;5095296;28;20036;-88
2023/05/26 09:40:30;;;;;;;20.77;5.15;;;14.60;99.90;;;;;;5095633;28;20073;-88
2023/05/26 09:42:56;;;;;;;17.73;4.47;;;14.10;99.90;;;;;;5094744;28;20473;-89
2023/05/26 09:45:22;;;;;;;22.40;5.65;;;14.10;99.90;;;;;;5095448;28;20017;-88
2023/05/26 09:47:57;;;;;;;26.08;5.38;;;14.20;99.90;;;;;;5094742;28;20047;-88
2023/05/26 09:50:24;;;;;;;26.73;6.15;;;14.20;99.90;;;;;;5095466;28;20172;-88
2023/05/26 09:52:50;;;;;;;20.02;6.25;;;14.20;99.90;;;;;;5094386;28;20032;-88
2023/05/26 09:55:17;;;;;;;30.08;5.72;;;14.30;99.90;;;;;;5093883;28;20047;-89
2023/05/26 09:57:45;;;;;;;18.00;5.07;;;14.30;99.90;;;;;;5095109;28;20165;-87
2023/05/26 10:00:13;;;;;;;17.23;5.53;;;14.30;99.90;;;;;;5095590;28;20121;-87
2023/05/26 10:02:40;;;;;;;24.13;6.05;;;14.40;99.90;;;;;;5094422;28;20433;-89
2023/05/26 10:05:06;;;;;;;21.23;5.35;;;14.40;99.90;;;;;;5095232;28;20376;-88
2023/05/26 10:07:33;;;;;;;21.52;5.18;;;14.40;99.90;;;;;;5094415;28;20472;-85
2023/05/26 10:10:01;;;;;;;14.65;4.20;;;14.40;99.90;;;;;;5104351;28;20039;-87
2023/05/26 10:12:30;;;;;;;22.83;5.38;;;14.50;99.90;;;;;;5094742;28;20050;-86
2023/05/26 10:14:56;;;;;;;21.33;4.40;;;14.50;99.90;;;;;;5094823;28;20024;-86
2023/05/26 10:17:23;;;;;;;13.70;4.55;;;14.60;99.90;;;;;;5094165;28;20456;-86
2023/05/26 10:19:49;;;;;;;17.75;4.80;;;14.70;99.90;;;;;;5095031;28;20058;-86
2023/05/26 10:22:24;;;;;;;18.10;4.15;;;14.70;99.90;;;;;;5093949;28;20490;-85
2023/05/26 10:25:27;;;;;;;14.55;4.53;;;14.80;99.90;;;;;;5092655;28;20482;-85
2023/05/26 10:27:58;;;;;;;23.63;4.53;;;14.80;99.90;;;;;;5091008;28;20036;-86
2023/05/26 10:30:25;;;;;;;13.73;4.13;;;14.80;99.90;;;;;;5094029;28;20082;-86
2023/05/26 10:32:56;;;;;;;15.35;4.30;;;14.90;99.90;;;;;;5094133;28;20464;-88
2023/05/26 10:35:30;;;;;;;22.75;6.22;;;15.00;99.90;;;;;;5094671;28;20391;-85
2023/05/26 10:38:02;;;;;;;17.17;4.53;;;15.00;99.90;;;;;;5093496;28;20024;-85
2023/05/26 10:40:37;;;;;;;14.95;4.93;;;15.00;99.90;;;;;;5093531;28;20071;-85
2023/05/26 10:43:14;;;;;;;22.20;5.60;;;15.10;99.90;;;;;;5093633;28;20031;-85
2023/05/26 10:45:51;;;;;;;21.23;5.63;;;15.10;99.90;;;;;;5093030;28;20024;-85
2023/05/26 10:48:17;;;;;;;18.42;5.18;;;15.20;99.90;;;;;;5094198;28;20466;-87
2023/05/26 10:51:14;;;;;;;19.38;4.85;;;15.20;99.90;;;;;;5093634;28;20383;-85
2023/05/26 10:53:44;;;;;;;14.65;5.57;;;15.30;99.90;;;;;;5092767;28;20032;-85
2023/05/26 10:56:12;;;;;;;15.80;4.45;;;15.30;99.90;;;;;;5093377;28;20044;-87
2023/05/26 10:58:47;;;;;;;17.52;4.30;;;15.30;99.90;;;;;;5084313;28;20086;-85
2023/05/26 11:01:19;;;;;;;15.13;4.93;;;15.30;99.90;;;;;;5083982;28;20024;-84
2023/05/26 11:03:46;;;;;;;17.73;5.07;;;15.40;99.90;;;;;;5097250;28;20028;-85
2023/05/26 11:06:14;;;;;;;21.77;4.97;;;15.50;99.90;;;;;;5092893;28;20433;-86
2023/05/26 11:08:48;;;;;;;20.63;5.25;;;15.60;99.90;;;;;;5093584;28;20024;-84
2023/05/26 11:11:27;;;;;;;12.07;4.25;;;15.60;99.90;;;;;;5093081;28;20032;-85
2023/05/26 11:14:02;;;;;;;16.10;4.63;;;15.70;99.90;;;;;;5092775;28;20024;-85
2023/05/26 11:16:32;;;;;;;20.08;4.93;;;15.70;99.90;;;;;;5093579;28;20043;-85
2023/05/26 11:19:03;;;;;;;17.65;5.40;;;15.70;99.90;;;;;;5076906;28;20040;-85
2023/05/26 11:21:31;;;;;;;18.27;4.97;;;15.90;99.90;;;;;;5079724;28;20395;-85
2023/05/26 11:23:58;;;;;;;18.50;5.28;;;16.50;99.90;;;;;;5093154;28;20039;-85
2023/05/26 11:26:26;;;;;;;14.25;4.10;;;15.90;99.90;;;;;;5091479;28;20032;-85
2023/05/26 11:28:52;;;;;;;14.02;4.97;;;15.90;99.90;;;;;;5092566;28;20499;-85
2023/05/26 11:31:20;;;;;;;18.63;4.88;;;16.90;99.90;;;;;;5093618;28;20029;-86
2023/05/26 11:33:47;;;;;;;16.10;5.30;;;16.00;99.90;;;;;;5091296;28;20031;-87
2023/05/26 11:36:15;;;;;;;15.80;4.97;;;16.00;99.90;;;;;;5092024;28;20078;-86
2023/05/26 11:38:42;;;;;;;18.60;5.72;;;16.00;99.90;;;;;;5092014;28;20036;-87
2023/05/26 11:41:09;;;;;;;19.02;5.03;;;16.60;99.90;;;;;;5091275;28;20464;-86
2023/05/26 11:43:36;;;;;;;13.27;4.18;;;16.70;99.90;;;;;;5091317;28;20111;-88
2023/05/26 11:46:05;;;;;;;12.95;4.63;;;16.20;99.90;;;;;;5092835;28;20059;-86
2023/05/26 11:48:50;;;;;;;18.42;4.20;;;16.20;99.90;;;;;;5091899;28;20032;-86
2023/05/26 11:51:19;;;;;;;24.58;5.57;;;16.30;99.90;;;;;;5097051;28;20074;-87
2023/05/26 11:53:46;;;;;;;17.60;4.70;;;16.40;99.90;;;;;;5122732;28;20027;-88
2023/05/26 11:56:13;;;;;;;24.15;5.10;;;16.40;99.90;;;;;;5114368;28;20364;-88
2023/05/26 11:58:48;;;;;;;17.02;4.85;;;16.50;99.90;;;;;;5112806;28;20117;-88
2023/05/26 12:01:15;;;;;;;16.98;5.20;;;16.60;99.90;;;;;;5113243;28;20024;-88
2023/05/26 12:03:51;;;;;;;13.10;4.63;;;16.60;99.90;;;;;;5111839;28;20471;-87
2023/05/26 12:06:22;;;;;;;17.95;5.30;;;16.60;99.90;;;;;;5111547;28;20059;-87
2023/05/26 12:09:02;;;;;;;18.75;4.15;;;16.60;99.90;;;;;;5110421;28;20028;-87
2023/05/26 12:11:34;;;;;;;17.20;4.57;;;16.70;99.90;;;;;;5111622;28;20034;-87
2023/05/26 12:14:26;;;;;;;22.80;5.65;;;16.70;99.90;;;;;;5111057;28;20024;-87
2023/05/26 12:16:55;;;;;;;17.77;5.18;;;16.30;99.90;;;;;;5105807;28;20031;-88
2023/05/26 12:19:24;;;;;;;13.98;4.35;;;16.90;99.90;;;;;;5112345;28;20035;-87
2023/05/26 12:21:56;;;;;;;15.88;4.40;;;16.90;99.90;;;;;;5112824;28;20030;-87
2023/05/26 12:24:36;;;;;;;17.67;4.28;;;17.20;99.90;;;;;;5112518;28;20042;-87
2023/05/26 12:27:09;;;;;;;19.37;4.60;;;17.00;99.90;;;;;;5112916;28;20046;-86
2023/05/26 12:29:39;;;;;;;15.20;4.63;;;17.00;99.90;;;;;;5111995;28;20067;-87
2023/05/26 12:32:06;;;;;;;22.92;5.57;;;17.10;99.90;;;;;;5113079;28;20107;-86
2023/05/26 12:34:32;;;;;;;18.83;4.50;;;17.20;99.90;;;;;;5112932;28;20031;-87
2023/05/26 12:36:57;;;;;;;14.07;4.57;;;17.00;99.90;;;;;;5112176;28;20023;-87
2023/05/26 12:39:23;;;;;;;18.45;5.43;;;17.20;99.90;;;;;;5112931;28;20087;-87